createdAt,value
2023-03-19T00:00:09.216Z,10.67
2023-03-19T00:01:11.449Z,10.67
2023-03-19T00:02:17.861Z,10.67
2023-03-19T00:03:24.688Z,10.68
2023-03-19T00:04:29.257Z,10.67
2023-03-19T00:05:31.658Z,10.68
2023-03-19T00:06:36.502Z,10.67
2023-03-19T00:07:46.040Z,10.67
2023-03-19T00:08:48.118Z,10.69
2023-03-19T00:09:54.392Z,10.69
2023-03-19T00:11:00.491Z,10.68
2023-03-19T00:12:04.876Z,10.69
2023-03-19T00:13:15.548Z,10.68
2023-03-19T00:14:20.914Z,10.68
2023-03-19T00:15:26.112Z,10.69
2023-03-19T00:16:28.354Z,10.69
2023-03-19T00:17:30.408Z,10.69
2023-03-19T00:18:38.891Z,10.72
2023-03-19T00:19:44.274Z,10.70
2023-03-19T00:20:51.414Z,10.71
2023-03-19T00:21:54.975Z,10.70
2023-03-19T00:22:58.831Z,10.70
2023-03-19T00:24:01.504Z,10.70
2023-03-19T00:25:10.818Z,10.70
2023-03-19T00:26:13.656Z,10.69
2023-03-19T00:27:18.889Z,10.69
2023-03-19T00:28:22.896Z,10.68
2023-03-19T00:29:27.998Z,10.67
2023-03-19T00:30:35.957Z,10.67
2023-03-19T00:31:39.521Z,10.66
2023-03-19T00:32:43.534Z,10.65
2023-03-19T00:33:47.813Z,10.65
2023-03-19T00:34:50.025Z,10.65
2023-03-19T00:35:53.582Z,10.65
2023-03-19T00:36:56.281Z,10.65
2023-03-19T00:37:58.988Z,10.65
2023-03-19T00:39:01.572Z,10.64
2023-03-19T00:40:08.560Z,10.65
2023-03-19T00:41:12.160Z,10.63
2023-03-19T00:42:18.177Z,10.64
2023-03-19T00:43:22.330Z,10.64
2023-03-19T00:44:25.097Z,10.63
2023-03-19T00:45:32.971Z,10.63
2023-03-19T00:46:39.642Z,10.63
2023-03-19T00:47:44.249Z,10.64
2023-03-19T00:48:53.383Z,10.64
2023-03-19T00:49:57.569Z,10.63
2023-03-19T00:51:10.971Z,10.64
2023-03-19T00:52:14.392Z,10.64
2023-03-19T00:53:21.390Z,10.65
2023-03-19T00:54:25.392Z,10.64
2023-03-19T00:55:28.155Z,10.64
2023-03-19T00:56:30.344Z,10.63
2023-03-19T00:57:32.951Z,10.63
2023-03-19T00:58:35.245Z,10.63
2023-03-19T00:59:37.550Z,10.64
2023-03-19T01:00:43.173Z,10.63
2023-03-19T01:01:51.919Z,10.63
2023-03-19T01:02:54.261Z,10.63
2023-03-19T01:03:58.339Z,10.62
2023-03-19T01:05:01.386Z,10.63
2023-03-19T01:06:03.858Z,10.63
2023-03-19T01:07:29.102Z,10.62
2023-03-19T01:08:32.021Z,10.62
2023-03-19T01:09:34.270Z,10.63
2023-03-19T01:10:36.469Z,10.62
2023-03-19T01:11:43.776Z,10.62
2023-03-19T01:12:46.577Z,10.62
2023-03-19T01:13:56.840Z,10.61
2023-03-19T01:14:59.799Z,10.62
2023-03-19T01:16:02.652Z,10.61
2023-03-19T01:17:04.833Z,10.61
2023-03-19T01:18:11.142Z,10.60
2023-03-19T01:19:15.227Z,10.60
2023-03-19T01:20:17.854Z,10.60
2023-03-19T01:21:20.817Z,10.60
2023-03-19T01:22:24.885Z,10.60
2023-03-19T01:23:30.580Z,10.60
2023-03-19T01:24:33.237Z,10.59
2023-03-19T01:25:39.065Z,10.60
2023-03-19T01:26:44.213Z,10.59
2023-03-19T01:27:49.372Z,10.59
2023-03-19T01:28:52.172Z,10.57
2023-03-19T01:30:00.200Z,10.55
2023-03-19T01:31:13.226Z,10.54
2023-03-19T01:32:24.328Z,10.54
2023-03-19T01:33:33.998Z,10.53
2023-03-19T01:34:39.783Z,10.51
2023-03-19T01:35:46.969Z,10.50
2023-03-19T01:36:49.902Z,10.48
2023-03-19T01:37:54.013Z,10.48
2023-03-19T01:38:58.527Z,10.45
2023-03-19T01:40:00.836Z,10.44
2023-03-19T01:41:03.591Z,10.41
2023-03-19T01:42:06.752Z,10.41
2023-03-19T01:43:25.901Z,10.40
2023-03-19T01:44:36.205Z,10.38
2023-03-19T01:46:17.304Z,10.38
2023-03-19T01:47:35.622Z,10.38
2023-03-19T01:48:49.786Z,10.38
2023-03-19T01:49:55.625Z,10.37
2023-03-19T01:50:59.260Z,10.35
2023-03-19T01:52:04.719Z,10.32
2023-03-19T01:53:12.609Z,10.31
2023-03-19T01:54:22.415Z,10.30
2023-03-19T01:55:29.522Z,10.29
2023-03-19T01:56:36.669Z,10.28
2023-03-19T01:58:58.611Z,10.37
2023-03-19T02:00:05.946Z,10.20
2023-03-19T02:01:27.846Z,10.21
2023-03-19T02:02:32.926Z,10.22
2023-03-19T02:03:38.429Z,10.20
2023-03-19T02:04:51.436Z,10.18
2023-03-19T02:05:55.374Z,10.17
2023-03-19T02:06:59.321Z,10.16
2023-03-19T02:08:04.761Z,10.15
2023-03-19T02:09:07.041Z,10.13
2023-03-19T02:10:13.400Z,10.13
2023-03-19T02:11:17.172Z,10.12
2023-03-19T02:12:19.516Z,10.11
2023-03-19T02:13:22.748Z,10.10
2023-03-19T02:14:25.183Z,10.09
2023-03-19T02:15:27.398Z,10.09
2023-03-19T02:16:29.751Z,10.08
2023-03-19T02:17:33.071Z,10.07
2023-03-19T02:18:35.647Z,10.05
2023-03-19T02:21:05.263Z,10.15
2023-03-19T02:22:10.042Z,9.98
2023-03-19T02:23:22.209Z,9.98
2023-03-19T02:24:32.446Z,9.98
2023-03-19T02:25:46.506Z,9.99
2023-03-19T02:26:50.348Z,9.98
2023-03-19T02:27:53.499Z,9.98
2023-03-19T02:28:57.031Z,9.96
2023-03-19T02:30:22.623Z,9.95
2023-03-19T02:31:24.856Z,9.94
2023-03-19T02:32:27.229Z,9.95
2023-03-19T02:33:29.812Z,9.94
2023-03-19T02:35:52.051Z,10.04
2023-03-19T02:37:18.614Z,9.87
2023-03-19T02:38:22.046Z,9.86
2023-03-19T02:39:28.311Z,9.88
2023-03-19T02:40:39.739Z,9.88
2023-03-19T02:41:42.707Z,9.87
2023-03-19T02:42:45.020Z,9.87
2023-03-19T02:43:47.095Z,9.85
2023-03-19T02:44:49.557Z,9.84
2023-03-19T02:45:51.904Z,9.84
2023-03-19T02:46:54.322Z,9.83
2023-03-19T02:47:56.999Z,9.83
2023-03-19T02:48:59.283Z,9.82
2023-03-19T02:50:02.016Z,9.82
2023-03-19T02:51:04.812Z,9.82
2023-03-19T02:52:07.457Z,9.81
2023-03-19T02:53:09.655Z,9.81
2023-03-19T02:54:11.834Z,9.80
2023-03-19T02:55:14.040Z,9.81
2023-03-19T02:56:16.314Z,9.81
2023-03-19T02:57:18.609Z,9.82
2023-03-19T02:58:21.278Z,9.81
2023-03-19T02:59:23.449Z,9.80
2023-03-19T03:00:26.672Z,9.80
2023-03-19T03:01:28.992Z,9.80
2023-03-19T03:02:31.333Z,9.79
2023-03-19T03:03:33.425Z,9.79
2023-03-19T03:04:35.957Z,9.80
2023-03-19T03:05:38.541Z,9.79
2023-03-19T03:06:40.831Z,9.79
2023-03-19T03:07:42.915Z,9.78
2023-03-19T03:08:46.325Z,9.77
2023-03-19T03:09:48.433Z,9.75
2023-03-19T03:10:50.948Z,9.75
2023-03-19T03:11:53.945Z,9.74
2023-03-19T03:12:56.495Z,9.74
2023-03-19T03:13:59.644Z,9.73
2023-03-19T03:15:02.792Z,9.72
2023-03-19T03:16:06.020Z,9.71
2023-03-19T03:17:08.850Z,9.70
2023-03-19T03:18:11.065Z,9.70
2023-03-19T03:19:13.798Z,9.70
2023-03-19T03:20:18.115Z,9.69
2023-03-19T03:21:20.731Z,9.67
2023-03-19T03:22:22.934Z,9.67
2023-03-19T03:23:24.975Z,9.67
2023-03-19T03:24:27.605Z,9.67
2023-03-19T03:25:30.178Z,9.66
2023-03-19T03:26:32.608Z,9.65
2023-03-19T03:27:34.989Z,9.64
2023-03-19T03:28:37.172Z,9.64
2023-03-19T03:29:40.649Z,9.63
2023-03-19T03:30:43.923Z,9.62
2023-03-19T03:31:46.883Z,9.62
2023-03-19T03:32:49.490Z,9.62
2023-03-19T03:33:51.668Z,9.60
2023-03-19T03:34:54.196Z,9.59
2023-03-19T03:35:56.388Z,9.59
2023-03-19T03:36:59.057Z,9.58
2023-03-19T03:38:01.262Z,9.57
2023-03-19T03:39:03.668Z,9.57
2023-03-19T03:40:08.255Z,9.56
2023-03-19T03:41:11.012Z,9.54
2023-03-19T03:42:14.174Z,9.54
2023-03-19T03:43:16.465Z,9.53
2023-03-19T03:44:19.072Z,9.51
2023-03-19T03:45:22.574Z,9.51
2023-03-19T03:46:26.579Z,9.51
2023-03-19T03:47:28.776Z,9.50
2023-03-19T03:48:30.853Z,9.48
2023-03-19T03:49:32.902Z,9.48
2023-03-19T03:50:35.593Z,9.47
2023-03-19T03:51:39.995Z,9.46
2023-03-19T03:52:42.607Z,9.43
2023-03-19T03:53:44.883Z,9.43
2023-03-19T03:54:47.361Z,9.43
2023-03-19T03:55:49.832Z,9.41
2023-03-19T03:56:54.224Z,9.41
2023-03-19T03:57:56.612Z,9.40
2023-03-19T03:58:58.913Z,9.38
2023-03-19T04:00:01.329Z,9.38
2023-03-19T04:01:03.721Z,9.39
2023-03-19T04:02:07.002Z,9.37
2023-03-19T04:03:09.282Z,9.36
2023-03-19T04:04:11.918Z,9.35
2023-03-19T04:05:14.243Z,9.36
2023-03-19T04:06:21.770Z,9.34
2023-03-19T04:07:26.279Z,9.34
2023-03-19T04:08:30.298Z,9.33
2023-03-19T04:09:33.594Z,9.31
2023-03-19T04:10:40.689Z,9.31
2023-03-19T04:11:42.987Z,9.29
2023-03-19T04:12:45.716Z,9.28
2023-03-19T04:13:48.399Z,9.27
2023-03-19T04:14:51.219Z,9.26
2023-03-19T04:15:53.685Z,9.27
2023-03-19T04:16:57.170Z,9.25
2023-03-19T04:17:59.624Z,9.26
2023-03-19T04:19:01.850Z,9.24
2023-03-19T04:20:06.530Z,9.24
2023-03-19T04:21:09.088Z,9.23
2023-03-19T04:22:11.787Z,9.21
2023-03-19T04:23:14.501Z,9.21
2023-03-19T04:24:16.956Z,9.20
2023-03-19T04:25:19.942Z,9.18
2023-03-19T04:26:22.216Z,9.18
2023-03-19T04:27:24.903Z,9.17
2023-03-19T04:28:28.270Z,9.16
2023-03-19T04:29:30.530Z,9.16
2023-03-19T04:30:35.436Z,9.15
2023-03-19T04:31:38.862Z,9.15
2023-03-19T04:32:41.189Z,9.14
2023-03-19T04:33:44.093Z,9.16
2023-03-19T04:34:46.870Z,9.16
2023-03-19T04:35:49.271Z,9.16
2023-03-19T04:36:51.333Z,9.16
2023-03-19T04:37:53.514Z,9.15
2023-03-19T04:38:56.964Z,9.17
2023-03-19T04:39:59.592Z,9.16
2023-03-19T04:41:01.974Z,9.19
2023-03-19T04:42:04.525Z,9.20
2023-03-19T04:43:08.640Z,9.20
2023-03-19T04:44:11.118Z,9.21
2023-03-19T04:45:14.959Z,9.22
2023-03-19T04:46:17.953Z,9.23
2023-03-19T04:47:20.196Z,9.26
2023-03-19T04:48:27.007Z,9.27
2023-03-19T04:49:29.511Z,9.28
2023-03-19T04:50:32.253Z,9.29
2023-03-19T04:51:35.326Z,9.31
2023-03-19T04:52:37.652Z,9.33
2023-03-19T04:53:40.396Z,9.34
2023-03-19T04:54:42.513Z,9.35
2023-03-19T04:55:44.661Z,9.38
2023-03-19T04:56:51.898Z,9.40
2023-03-19T04:57:55.634Z,9.43
2023-03-19T04:58:59.670Z,9.44
2023-03-19T05:00:04.217Z,9.45
2023-03-19T05:01:08.620Z,9.47
2023-03-19T05:02:12.709Z,9.48
2023-03-19T05:03:15.606Z,9.50
2023-03-19T05:04:19.309Z,9.52
2023-03-19T05:05:22.708Z,9.54
2023-03-19T05:06:26.384Z,9.56
2023-03-19T05:07:28.631Z,9.58
2023-03-19T05:08:32.235Z,9.60
2023-03-19T05:09:34.939Z,9.62
2023-03-19T05:10:37.891Z,9.63
2023-03-19T05:11:41.186Z,9.65
2023-03-19T05:12:48.238Z,9.68
2023-03-19T05:13:51.222Z,9.70
2023-03-19T05:14:55.602Z,9.72
2023-03-19T05:15:59.826Z,9.74
2023-03-19T05:17:02.111Z,9.76
2023-03-19T05:18:06.232Z,9.78
2023-03-19T05:19:10.284Z,9.80
2023-03-19T05:20:12.949Z,9.81
2023-03-19T05:21:17.491Z,9.84
2023-03-19T05:22:21.040Z,9.87
2023-03-19T05:23:23.216Z,9.89
2023-03-19T05:24:27.350Z,9.90
2023-03-19T05:25:30.399Z,9.92
2023-03-19T05:26:32.570Z,9.93
2023-03-19T05:27:43.413Z,9.94
2023-03-19T05:28:47.505Z,9.97
2023-03-19T05:29:50.852Z,9.99
2023-03-19T05:31:00.703Z,10.00
2023-03-19T05:32:05.758Z,10.02
2023-03-19T05:33:08.989Z,10.04
2023-03-19T05:34:13.096Z,10.04
2023-03-19T05:35:15.727Z,10.05
2023-03-19T05:36:17.914Z,10.07
2023-03-19T05:37:22.106Z,10.09
2023-03-19T05:38:26.147Z,10.11
2023-03-19T05:39:33.238Z,10.13
2023-03-19T05:40:37.859Z,10.18
2023-03-19T05:41:41.996Z,10.21
2023-03-19T05:42:46.001Z,10.26
2023-03-19T05:43:49.062Z,10.29
2023-03-19T05:44:53.096Z,10.32
2023-03-19T05:46:06.325Z,10.33
2023-03-19T05:47:11.811Z,10.40
2023-03-19T05:48:15.161Z,10.49
2023-03-19T05:49:18.893Z,10.59
2023-03-19T05:50:21.267Z,10.63
2023-03-19T05:51:31.320Z,10.66
2023-03-19T05:52:34.029Z,10.69
2023-03-19T05:53:36.210Z,10.72
2023-03-19T05:54:43.806Z,10.73
2023-03-19T05:55:50.451Z,10.76
2023-03-19T05:56:54.076Z,10.79
2023-03-19T05:58:06.974Z,10.80
2023-03-19T05:59:09.656Z,10.82
2023-03-19T06:00:17.243Z,10.85
2023-03-19T06:01:21.969Z,10.87
2023-03-19T06:02:24.736Z,10.89
2023-03-19T06:03:28.373Z,10.91
2023-03-19T06:04:32.502Z,10.93
2023-03-19T06:05:35.138Z,10.95
2023-03-19T06:06:39.289Z,10.98
2023-03-19T06:07:41.736Z,10.99
2023-03-19T06:08:46.129Z,11.02
2023-03-19T06:10:10.438Z,11.04
2023-03-19T06:11:12.874Z,11.11
2023-03-19T06:12:15.729Z,11.12
2023-03-19T06:13:28.643Z,11.13
2023-03-19T06:14:41.883Z,11.16
2023-03-19T06:15:48.092Z,11.17
2023-03-19T06:16:55.611Z,11.17
2023-03-19T06:17:58.061Z,11.17
2023-03-19T06:19:00.275Z,11.16
2023-03-19T06:20:03.243Z,11.15
2023-03-19T06:21:05.693Z,11.15
2023-03-19T06:22:08.319Z,11.15
2023-03-19T06:23:10.804Z,11.15
2023-03-19T06:24:12.858Z,11.14
2023-03-19T06:25:15.666Z,11.13
2023-03-19T06:26:17.918Z,11.13
2023-03-19T06:27:27.789Z,11.12
2023-03-19T06:28:32.580Z,11.12
2023-03-19T06:29:35.328Z,11.11
2023-03-19T06:30:39.474Z,11.10
2023-03-19T06:31:43.677Z,11.10
2023-03-19T06:32:47.773Z,11.10
2023-03-19T06:33:50.043Z,11.09
2023-03-19T06:34:52.925Z,11.08
2023-03-19T06:35:56.724Z,11.10
2023-03-19T06:36:58.888Z,11.09
2023-03-19T06:38:00.926Z,11.09
2023-03-19T06:39:05.121Z,11.10
2023-03-19T06:40:11.172Z,11.10
2023-03-19T06:41:13.341Z,11.10
2023-03-19T06:42:16.083Z,11.09
2023-03-19T06:43:18.969Z,11.10
2023-03-19T06:44:21.289Z,11.10
2023-03-19T06:45:23.443Z,11.11
2023-03-19T06:46:25.641Z,11.11
2023-03-19T06:47:28.019Z,11.12
2023-03-19T06:48:30.185Z,11.13
2023-03-19T06:49:32.366Z,11.13
2023-03-19T06:50:34.786Z,11.15
2023-03-19T06:51:38.199Z,11.17
2023-03-19T06:52:40.441Z,11.17
2023-03-19T06:53:42.882Z,11.18
2023-03-19T06:54:45.064Z,11.19
2023-03-19T06:55:47.749Z,11.20
2023-03-19T06:56:49.840Z,11.23
2023-03-19T06:57:51.904Z,11.23
2023-03-19T06:58:54.060Z,11.22
2023-03-19T06:59:56.226Z,11.24
2023-03-19T07:00:58.945Z,11.24
2023-03-19T07:02:01.292Z,11.26
2023-03-19T07:03:03.841Z,11.26
2023-03-19T07:04:05.923Z,11.28
2023-03-19T07:05:08.448Z,11.29
2023-03-19T07:06:11.533Z,11.31
2023-03-19T07:07:13.699Z,11.31
2023-03-19T07:08:15.992Z,11.32
2023-03-19T07:09:18.151Z,11.34
2023-03-19T07:10:21.037Z,11.33
2023-03-19T07:11:24.177Z,11.35
2023-03-19T07:12:27.424Z,11.35
2023-03-19T07:13:29.657Z,11.38
2023-03-19T07:14:31.869Z,11.39
2023-03-19T07:15:34.537Z,11.41
2023-03-19T07:16:36.980Z,11.43
2023-03-19T07:17:39.582Z,11.45
2023-03-19T07:18:41.733Z,11.44
2023-03-19T07:19:43.986Z,11.45
2023-03-19T07:20:46.278Z,11.47
2023-03-19T07:21:48.440Z,11.48
2023-03-19T07:22:51.700Z,11.49
2023-03-19T07:23:53.854Z,11.49
2023-03-19T07:24:56.126Z,11.48
2023-03-19T07:25:58.299Z,11.49
2023-03-19T07:27:00.839Z,11.49
2023-03-19T07:28:03.805Z,11.48
2023-03-19T07:29:06.049Z,11.49
2023-03-19T07:30:10.068Z,11.50
2023-03-19T07:31:12.183Z,11.50
2023-03-19T07:32:14.863Z,11.51
2023-03-19T07:33:17.495Z,11.52
2023-03-19T07:34:20.132Z,11.53
2023-03-19T07:35:22.870Z,11.54
2023-03-19T07:36:25.333Z,11.55
2023-03-19T07:37:27.441Z,11.56
2023-03-19T07:38:30.486Z,11.57
2023-03-19T07:39:32.808Z,11.56
2023-03-19T07:40:35.396Z,11.58
2023-03-19T07:41:37.973Z,11.59
2023-03-19T07:42:41.889Z,11.60
2023-03-19T07:43:45.020Z,11.62
2023-03-19T07:44:47.594Z,11.64
2023-03-19T07:45:49.806Z,11.64
2023-03-19T07:46:52.124Z,11.65
2023-03-19T07:47:54.304Z,11.67
2023-03-19T07:48:56.833Z,11.67
2023-03-19T07:50:00.028Z,11.67
2023-03-19T07:51:02.657Z,11.67
2023-03-19T07:52:04.915Z,11.67
2023-03-19T07:53:07.641Z,11.69
2023-03-19T07:54:09.634Z,11.69
2023-03-19T07:55:11.640Z,11.71
2023-03-19T07:56:14.540Z,11.73
2023-03-19T07:57:17.155Z,11.76
2023-03-19T07:58:19.130Z,11.76
2023-03-19T07:59:21.438Z,11.77
2023-03-19T08:00:23.966Z,11.78
2023-03-19T08:01:26.658Z,11.79
2023-03-19T08:02:28.797Z,11.79
2023-03-19T08:03:30.889Z,11.81
2023-03-19T08:04:33.112Z,11.82
2023-03-19T08:05:35.495Z,11.83
2023-03-19T08:06:37.873Z,11.86
2023-03-19T08:07:40.384Z,11.87
2023-03-19T08:08:42.541Z,11.89
2023-03-19T08:09:45.400Z,11.89
2023-03-19T08:10:47.546Z,11.90
2023-03-19T08:11:49.736Z,11.92
2023-03-19T08:12:51.800Z,11.93
2023-03-19T08:13:54.287Z,11.94
2023-03-19T08:14:56.365Z,11.96
2023-03-19T08:15:58.599Z,11.95
2023-03-19T08:17:00.884Z,11.96
2023-03-19T08:18:04.524Z,11.97
2023-03-19T08:19:07.087Z,11.98
2023-03-19T08:20:11.975Z,12.00
2023-03-19T08:21:13.998Z,12.02
2023-03-19T08:22:16.768Z,12.02
2023-03-19T08:23:19.444Z,12.03
2023-03-19T08:24:21.676Z,12.04
2023-03-19T08:25:24.586Z,12.05
2023-03-19T08:26:27.848Z,12.07
2023-03-19T08:27:30.257Z,12.07
2023-03-19T08:28:32.382Z,12.08
2023-03-19T08:29:34.665Z,12.09
2023-03-19T08:30:37.870Z,12.11
2023-03-19T08:31:40.560Z,12.14
2023-03-19T08:32:43.793Z,12.16
2023-03-19T08:33:47.248Z,12.18
2023-03-19T08:34:49.989Z,12.17
2023-03-19T08:35:52.225Z,12.19
2023-03-19T08:36:54.744Z,12.25
2023-03-19T08:37:56.951Z,12.34
2023-03-19T08:38:59.112Z,12.39
2023-03-19T08:40:01.519Z,12.44
2023-03-19T08:41:04.369Z,12.49
2023-03-19T08:42:06.629Z,12.58
2023-03-19T08:43:08.721Z,12.64
2023-03-19T08:44:10.804Z,12.71
2023-03-19T08:45:15.042Z,12.73
2023-03-19T08:46:18.287Z,12.76
2023-03-19T08:47:20.771Z,12.80
2023-03-19T08:48:23.509Z,12.80
2023-03-19T08:49:26.030Z,12.82
2023-03-19T08:50:28.333Z,12.83
2023-03-19T08:51:30.453Z,12.84
2023-03-19T08:52:32.625Z,12.86
2023-03-19T08:53:35.286Z,12.86
2023-03-19T08:54:37.881Z,12.87
2023-03-19T08:55:40.689Z,12.86
2023-03-19T08:56:43.639Z,12.88
2023-03-19T08:57:46.268Z,12.89
2023-03-19T08:58:48.502Z,12.90
2023-03-19T08:59:52.851Z,12.90
2023-03-19T09:01:03.827Z,12.90
2023-03-19T09:02:06.774Z,12.90
2023-03-19T09:03:09.096Z,12.89
2023-03-19T09:04:11.237Z,12.89
2023-03-19T09:05:13.956Z,12.89
2023-03-19T09:06:17.260Z,12.91
2023-03-19T09:07:19.406Z,12.92
2023-03-19T09:08:22.012Z,12.92
2023-03-19T09:09:25.379Z,12.93
2023-03-19T09:10:28.146Z,12.95
2023-03-19T09:11:30.366Z,12.96
2023-03-19T09:12:33.144Z,12.96
2023-03-19T09:13:35.531Z,12.97
2023-03-19T09:14:39.265Z,12.98
2023-03-19T09:15:42.144Z,12.99
2023-03-19T09:16:44.965Z,13.01
2023-03-19T09:17:47.101Z,13.02
2023-03-19T09:18:49.807Z,13.04
2023-03-19T09:19:53.640Z,13.03
2023-03-19T09:20:58.371Z,13.05
2023-03-19T09:22:00.647Z,13.07
2023-03-19T09:23:03.916Z,13.08
2023-03-19T09:24:09.499Z,13.09
2023-03-19T09:25:12.345Z,13.09
2023-03-19T09:26:14.955Z,13.10
2023-03-19T09:27:21.736Z,13.11
2023-03-19T09:28:26.235Z,13.11
2023-03-19T09:29:30.010Z,13.13
2023-03-19T09:30:36.624Z,13.13
2023-03-19T09:31:40.615Z,13.14
2023-03-19T09:32:44.939Z,13.15
2023-03-19T09:33:47.642Z,13.16
2023-03-19T09:34:50.789Z,13.18
2023-03-19T09:35:54.113Z,13.18
2023-03-19T09:37:16.662Z,13.20
2023-03-19T09:38:22.629Z,13.20
2023-03-19T09:39:24.888Z,13.23
2023-03-19T09:40:36.947Z,13.22
2023-03-19T09:42:12.959Z,13.23
2023-03-19T09:43:43.005Z,13.23
2023-03-19T09:44:46.464Z,13.24
2023-03-19T09:45:50.377Z,13.25
2023-03-19T09:47:02.015Z,13.25
2023-03-19T09:49:29.753Z,13.35
2023-03-19T09:50:33.891Z,13.19
2023-03-19T09:53:07.668Z,13.32
2023-03-19T09:54:34.392Z,13.17
2023-03-19T09:55:49.201Z,13.20
2023-03-19T09:56:52.478Z,13.22
2023-03-19T09:59:14.480Z,13.29
2023-03-19T10:00:23.260Z,13.11
2023-03-19T10:01:29.328Z,13.11
2023-03-19T10:02:45.207Z,13.12
2023-03-19T10:03:54.438Z,13.11
2023-03-19T10:05:09.745Z,13.10
2023-03-19T10:06:24.832Z,13.09
2023-03-19T10:07:46.894Z,13.08
2023-03-19T10:08:58.584Z,13.07
2023-03-19T10:10:28.335Z,13.09
2023-03-19T10:11:55.529Z,13.06
2023-03-19T10:13:27.776Z,13.07
2023-03-19T10:14:56.466Z,13.06
2023-03-19T10:16:01.012Z,13.07
2023-03-19T10:17:10.816Z,13.08
2023-03-19T10:18:20.976Z,13.04
2023-03-19T10:20:53.670Z,13.13
2023-03-19T10:21:59.339Z,12.95
2023-03-19T10:23:36.931Z,12.97
2023-03-19T10:24:41.420Z,12.96
2023-03-19T10:25:43.670Z,12.98
2023-03-19T10:26:47.864Z,13.01
2023-03-19T10:27:54.279Z,13.06
2023-03-19T10:29:03.549Z,13.12
2023-03-19T10:30:14.259Z,13.16
2023-03-19T10:31:38.813Z,13.21
2023-03-19T10:32:45.835Z,13.26
2023-03-19T10:34:11.038Z,13.35
2023-03-19T10:35:38.034Z,13.39
2023-03-19T10:36:40.843Z,13.49
2023-03-19T10:37:47.041Z,13.57
2023-03-19T10:38:54.469Z,13.63
2023-03-19T10:39:58.835Z,13.69
2023-03-19T10:41:07.660Z,13.75
2023-03-19T10:43:27.728Z,13.97
2023-03-19T10:44:34.540Z,13.88
2023-03-19T10:45:39.193Z,13.95
2023-03-19T10:46:44.920Z,14.00
2023-03-19T10:47:48.728Z,14.03
2023-03-19T10:48:51.261Z,14.06
2023-03-19T10:49:55.775Z,14.08
2023-03-19T10:51:05.637Z,14.09
2023-03-19T10:53:43.431Z,14.21
2023-03-19T10:54:46.513Z,14.07
2023-03-19T10:55:56.953Z,14.06
2023-03-19T10:57:18.762Z,14.06
2023-03-19T10:58:27.127Z,14.04
2023-03-19T10:59:32.362Z,14.05
2023-03-19T11:00:36.393Z,14.04
2023-03-19T11:01:40.734Z,14.03
2023-03-19T11:02:48.989Z,14.01
2023-03-19T11:03:55.029Z,14.03
2023-03-19T11:06:37.299Z,14.20
2023-03-19T11:07:39.882Z,14.06
2023-03-19T11:08:43.084Z,14.09
2023-03-19T11:09:50.123Z,14.09
2023-03-19T11:10:52.994Z,14.09
2023-03-19T11:13:26.023Z,14.19
2023-03-19T11:14:37.967Z,14.03
2023-03-19T11:15:40.188Z,14.03
2023-03-19T11:16:51.864Z,14.02
2023-03-19T11:17:59.839Z,14.04
2023-03-19T11:19:02.721Z,14.03
2023-03-19T11:21:31.931Z,14.14
2023-03-19T11:22:36.550Z,13.97
2023-03-19T11:23:41.412Z,13.98
2023-03-19T11:25:17.554Z,13.99
2023-03-19T11:26:21.527Z,13.98
2023-03-19T11:27:33.584Z,14.01
2023-03-19T11:28:37.129Z,14.01
2023-03-19T11:29:42.337Z,14.02
2023-03-19T11:31:00.925Z,14.00
2023-03-19T11:33:58.595Z,14.15
2023-03-19T11:35:15.078Z,14.00
2023-03-19T11:36:22.081Z,14.02
2023-03-19T11:39:29.238Z,14.16
2023-03-19T11:40:45.461Z,14.01
2023-03-19T11:42:00.898Z,14.04
2023-03-19T11:43:10.045Z,14.06
2023-03-19T11:44:15.845Z,14.05
2023-03-19T11:45:42.129Z,14.05
2023-03-19T11:48:41.349Z,14.20
2023-03-19T11:51:22.756Z,14.20
2023-03-19T11:52:31.426Z,14.07
2023-03-19T11:56:20.947Z,14.09
2023-03-19T11:57:52.846Z,14.12
2023-03-19T11:59:18.203Z,14.15
2023-03-19T12:00:41.303Z,14.20
2023-03-19T12:02:09.774Z,14.24
2023-03-19T12:03:39.539Z,14.29
2023-03-19T12:04:55.570Z,14.38
2023-03-19T12:06:12.433Z,14.46
2023-03-19T12:07:34.899Z,14.53
2023-03-19T12:08:40.537Z,14.60
2023-03-19T12:09:56.612Z,14.66
2023-03-19T12:11:23.720Z,14.67
2023-03-19T12:12:34.604Z,14.72
2023-03-19T12:13:56.925Z,14.77
2023-03-19T12:15:23.788Z,14.79
2023-03-19T12:16:55.442Z,14.87
2023-03-19T12:20:00.123Z,15.13
2023-03-19T12:21:18.657Z,15.04
2023-03-19T12:22:44.678Z,15.10
2023-03-19T12:24:00.137Z,15.19
2023-03-19T12:25:38.069Z,15.26
2023-03-19T12:28:23.855Z,15.54
2023-03-19T12:30:57.894Z,15.67
2023-03-19T12:33:54.665Z,15.83
2023-03-19T12:35:03.135Z,15.78
2023-03-19T12:36:09.107Z,15.87
2023-03-19T12:37:32.499Z,15.93
2023-03-19T12:38:41.584Z,15.98
2023-03-19T12:39:59.594Z,16.06
2023-03-19T12:41:07.860Z,16.11
2023-03-19T12:42:32.150Z,16.16
2023-03-19T12:44:00.091Z,16.20
2023-03-19T12:45:03.895Z,16.25
2023-03-19T12:46:18.468Z,16.30
2023-03-19T12:48:43.559Z,16.52
2023-03-19T12:49:58.727Z,16.45
2023-03-19T12:52:35.360Z,16.70
2023-03-19T12:53:45.335Z,16.65
2023-03-19T12:54:59.820Z,16.75
2023-03-19T12:56:08.596Z,16.86
2023-03-19T12:58:58.838Z,17.19
2023-03-19T13:00:13.824Z,17.16
2023-03-19T13:01:20.570Z,17.25
2023-03-19T13:02:49.579Z,17.32
2023-03-19T13:04:10.199Z,17.39
2023-03-19T13:05:18.825Z,17.46
2023-03-19T13:06:34.057Z,17.55
2023-03-19T13:07:56.594Z,17.60
2023-03-19T13:09:13.998Z,17.71
2023-03-19T13:12:00.568Z,18.12
2023-03-19T13:13:23.417Z,18.23
2023-03-19T13:14:45.159Z,18.45
2023-03-19T13:15:49.596Z,18.66
2023-03-19T13:18:38.881Z,18.93
2023-03-19T13:19:47.153Z,18.88
2023-03-19T13:21:04.424Z,18.96
2023-03-19T13:22:13.060Z,19.04
2023-03-19T13:23:21.822Z,19.14
2023-03-19T13:29:02.296Z,19.51
2023-03-19T13:30:14.602Z,19.51
2023-03-19T13:31:24.221Z,19.55
2023-03-19T13:32:39.213Z,19.60
2023-03-19T13:33:46.303Z,19.66
2023-03-19T13:34:49.409Z,19.72
2023-03-19T13:35:52.121Z,19.78
2023-03-19T13:38:28.191Z,20.04
2023-03-19T13:39:32.719Z,19.99
2023-03-19T13:40:50.065Z,20.04
2023-03-19T13:42:12.469Z,20.11
2023-03-19T13:43:33.798Z,20.18
2023-03-19T13:44:53.666Z,20.25
2023-03-19T13:46:17.751Z,20.32
2023-03-19T13:47:30.404Z,20.38
2023-03-19T13:48:49.529Z,20.45
2023-03-19T13:50:21.734Z,20.51
2023-03-19T13:51:26.072Z,20.57
2023-03-19T13:52:32.187Z,20.63
2023-03-19T13:53:40.219Z,20.68
2023-03-19T13:54:44.795Z,20.73
2023-03-19T13:55:58.587Z,20.77
2023-03-19T13:57:18.564Z,20.82
2023-03-19T13:58:26.317Z,20.86
2023-03-19T13:59:30.923Z,20.90
2023-03-19T14:00:47.367Z,20.94
2023-03-19T14:01:49.773Z,20.98
2023-03-19T14:02:53.577Z,21.03
2023-03-19T14:03:58.791Z,21.05
2023-03-19T14:05:16.739Z,21.06
2023-03-19T14:06:49.600Z,21.06
2023-03-19T14:07:54.821Z,21.04
2023-03-19T14:08:57.066Z,21.03
2023-03-19T14:10:02.947Z,21.01
2023-03-19T14:11:06.751Z,21.00
2023-03-19T14:12:21.401Z,20.97
2023-03-19T14:14:49.853Z,21.08
2023-03-19T14:15:53.587Z,20.95
2023-03-19T14:16:55.879Z,20.94
2023-03-19T14:18:01.937Z,20.93
2023-03-19T14:19:08.761Z,20.91
2023-03-19T14:20:24.069Z,20.89
2023-03-19T14:21:46.372Z,20.87
2023-03-19T14:23:12.939Z,20.85
2023-03-19T14:26:17.767Z,20.79
2023-03-19T14:27:28.200Z,20.57
2023-03-19T14:28:46.137Z,20.55
2023-03-19T14:29:50.089Z,20.53
2023-03-19T15:35:28.128Z,19.68
2023-03-19T15:36:32.843Z,19.44
2023-03-19T15:39:07.390Z,19.38
2023-03-19T15:40:12.739Z,19.17
2023-03-19T15:41:17.011Z,19.10
2023-03-19T15:42:20.133Z,19.03
2023-03-19T15:43:24.029Z,18.97
2023-03-19T15:44:30.481Z,18.90
2023-03-19T15:45:34.785Z,18.84
2023-03-19T15:46:42.631Z,18.76
2023-03-19T15:49:08.292Z,18.73
2023-03-19T15:50:19.479Z,18.51
2023-03-19T15:51:26.312Z,18.44
2023-03-19T15:52:31.195Z,18.38
2023-03-19T15:53:38.369Z,18.34
2023-03-19T15:54:56.848Z,18.28
2023-03-19T15:56:16.193Z,18.24
2023-03-19T15:57:24.636Z,18.19
2023-03-19T16:00:03.879Z,18.17
2023-03-19T16:01:11.831Z,17.94
2023-03-19T16:04:09.731Z,17.94
2023-03-19T16:05:32.795Z,17.71
2023-03-19T16:06:37.685Z,17.66
2023-03-19T16:07:42.617Z,17.61
2023-03-19T16:08:52.629Z,17.55
2023-03-19T16:09:55.994Z,17.48
2023-03-19T16:11:28.358Z,17.42
2023-03-19T16:12:41.722Z,17.37
2023-03-19T16:15:27.323Z,17.35
2023-03-19T16:16:31.155Z,17.11
2023-03-19T16:17:35.519Z,17.07
2023-03-19T16:18:52.362Z,17.03
2023-03-19T16:19:56.182Z,16.99
2023-03-19T16:21:02.567Z,16.93
2023-03-19T16:22:17.111Z,16.89
2023-03-19T16:23:20.216Z,16.84
2023-03-19T16:24:28.027Z,16.79